createdAt,value
2023-07-17T00:02:43.930Z,21.18
2023-07-17T00:06:45.857Z,21.18
2023-07-17T00:10:47.533Z,21.19
2023-07-17T00:14:49.403Z,21.18
2023-07-17T00:18:51.366Z,21.17
2023-07-17T00:22:53.380Z,21.12
2023-07-17T00:26:55.249Z,21.11
2023-07-17T00:30:57.116Z,21.21
2023-07-17T00:34:58.912Z,21.31
2023-07-17T00:39:00.643Z,21.37
2023-07-17T00:43:02.526Z,21.44
2023-07-17T00:47:05.869Z,21.47
2023-07-17T00:51:07.882Z,21.46
2023-07-17T00:55:09.967Z,21.46
2023-07-17T00:59:13.276Z,21.49
2023-07-17T01:03:15.252Z,21.46
2023-07-17T01:07:17.413Z,21.39
2023-07-17T01:11:19.592Z,21.38
2023-07-17T01:15:21.371Z,21.39
2023-07-17T01:19:23.242Z,21.43
2023-07-17T01:23:25.344Z,21.47
2023-07-17T01:27:27.065Z,21.48
2023-07-17T01:31:28.828Z,21.50
2023-07-17T01:35:30.598Z,21.49
2023-07-17T01:39:32.568Z,21.50
2023-07-17T01:43:34.563Z,21.52
2023-07-17T01:47:36.351Z,21.45
2023-07-17T01:51:38.226Z,21.40
2023-07-17T01:55:39.953Z,21.38
2023-07-17T01:59:41.778Z,21.37
2023-07-17T02:03:43.516Z,21.40
2023-07-17T02:07:45.300Z,21.46
2023-07-17T02:11:47.003Z,21.50
2023-07-17T02:15:48.642Z,21.53
2023-07-17T02:19:50.211Z,21.57
2023-07-17T02:23:52.217Z,21.60
2023-07-17T02:27:54.318Z,21.65
2023-07-17T02:31:56.143Z,21.61
2023-07-17T02:35:57.762Z,21.54
2023-07-17T02:39:59.499Z,21.54
2023-07-17T02:44:01.387Z,21.54
2023-07-17T02:48:04.532Z,21.50
2023-07-17T02:52:07.783Z,21.48
2023-07-17T02:56:09.443Z,21.50
2023-07-17T03:00:13.161Z,21.49
2023-07-17T03:04:15.313Z,21.47
2023-07-17T03:08:17.089Z,21.49
2023-07-17T03:12:18.809Z,21.53
2023-07-17T03:16:21.251Z,21.57
2023-07-17T03:20:23.131Z,21.46
2023-07-17T03:24:24.921Z,21.28
2023-07-17T03:28:26.810Z,21.16
2023-07-17T03:32:35.602Z,21.08
2023-07-17T03:36:37.526Z,21.10
2023-07-17T03:40:39.467Z,21.11
2023-07-17T03:44:41.171Z,21.03
2023-07-17T03:48:42.893Z,20.91
2023-07-17T03:52:44.845Z,20.92
2023-07-17T03:56:46.962Z,21.00
2023-07-17T04:00:48.994Z,20.96
2023-07-17T04:04:51.263Z,20.96
2023-07-17T04:08:53.013Z,21.02
2023-07-17T04:12:55.019Z,21.16
2023-07-17T04:16:56.993Z,21.41
2023-07-17T04:20:58.977Z,21.64
2023-07-17T04:25:02.682Z,21.88
2023-07-17T04:29:04.571Z,22.38
2023-07-17T04:33:06.611Z,23.42
2023-07-17T04:37:08.644Z,24.56
2023-07-17T04:41:10.801Z,25.71
2023-07-17T04:45:13.382Z,26.44
2023-07-17T04:49:15.156Z,26.88
2023-07-17T04:53:17.313Z,27.24
2023-07-17T04:57:19.369Z,27.77
2023-07-17T05:01:21.872Z,28.53
2023-07-17T05:05:24.472Z,28.99
2023-07-17T05:09:26.848Z,29.42
2023-07-17T05:13:29.782Z,29.56
2023-07-17T05:17:32.214Z,29.67
2023-07-17T05:21:35.065Z,29.70
2023-07-17T05:25:37.702Z,29.89
2023-07-17T05:29:40.174Z,30.30
2023-07-17T05:33:42.642Z,30.69
2023-07-17T05:37:45.340Z,30.89
2023-07-17T05:41:47.909Z,31.13
2023-07-17T05:45:50.376Z,31.36
2023-07-17T05:49:52.627Z,31.80
2023-07-17T05:53:55.373Z,32.25
2023-07-17T05:57:57.785Z,32.39
2023-07-17T06:02:00.392Z,32.66
2023-07-17T06:06:04.343Z,32.81
2023-07-17T06:10:08.418Z,32.91
2023-07-17T06:14:10.886Z,32.68
2023-07-17T06:18:13.402Z,32.98
2023-07-17T06:22:16.559Z,33.47
2023-07-17T06:26:19.178Z,33.27
2023-07-17T06:30:21.967Z,33.09
2023-07-17T06:34:24.435Z,33.16
2023-07-17T06:38:28.052Z,33.16
2023-07-17T06:42:31.881Z,33.07
2023-07-17T06:46:34.664Z,32.78
2023-07-17T06:50:37.427Z,32.19
2023-07-17T06:54:57.001Z,31.46
2023-07-17T06:59:02.489Z,31.39
2023-07-17T07:03:05.237Z,31.48
2023-07-17T07:07:07.848Z,31.45
2023-07-17T07:11:11.002Z,31.14
2023-07-17T07:15:13.540Z,30.81
2023-07-17T07:19:16.275Z,30.55
2023-07-17T07:23:20.030Z,30.46
2023-07-17T07:27:22.410Z,30.37
2023-07-17T07:31:24.953Z,30.37
2023-07-17T07:35:27.623Z,30.55
2023-07-17T07:39:30.248Z,30.45
2023-07-17T07:43:32.489Z,30.30
2023-07-17T07:47:34.812Z,30.19
2023-07-17T07:51:37.374Z,30.01
2023-07-17T07:55:41.031Z,29.86
2023-07-17T07:59:52.552Z,29.87
2023-07-17T08:03:55.134Z,29.72
2023-07-17T08:07:57.418Z,29.79
2023-07-17T08:11:59.893Z,29.53
2023-07-17T08:16:02.163Z,29.22
2023-07-17T08:20:05.715Z,28.85
2023-07-17T08:24:08.116Z,28.50
2023-07-17T08:28:10.677Z,28.39
2023-07-17T08:32:12.969Z,28.34
2023-07-17T08:36:15.247Z,28.39
2023-07-17T08:40:17.749Z,28.40
2023-07-17T08:44:21.221Z,28.54
2023-07-17T08:48:24.779Z,28.41
2023-07-17T08:52:29.216Z,28.36
2023-07-17T08:56:32.396Z,28.53
2023-07-17T09:00:35.029Z,28.66
2023-07-17T09:04:37.566Z,28.89
2023-07-17T09:08:40.239Z,29.07
2023-07-17T09:12:43.955Z,29.07
2023-07-17T09:16:47.691Z,29.16
2023-07-17T09:21:05.378Z,29.39
2023-07-17T09:25:09.072Z,29.40
2023-07-17T09:29:14.819Z,29.59
2023-07-17T09:33:25.607Z,29.49
2023-07-17T09:37:32.322Z,29.76
2023-07-17T09:41:35.590Z,29.94
2023-07-17T09:45:38.366Z,29.74
2023-07-17T09:49:41.695Z,29.80
2023-07-17T09:53:46.304Z,29.84
2023-07-17T09:57:53.675Z,29.94
2023-07-17T10:01:58.982Z,30.23
2023-07-17T10:06:02.761Z,30.57
2023-07-17T10:10:07.866Z,30.53
2023-07-17T10:14:12.947Z,30.12
2023-07-17T10:18:15.724Z,29.96
2023-07-17T10:22:18.719Z,30.11
2023-07-17T10:26:22.440Z,30.35
2023-07-17T10:30:26.086Z,30.31
2023-07-17T10:34:47.757Z,30.27
2023-07-17T10:38:54.005Z,30.04
2023-07-17T10:43:11.729Z,30.17
2023-07-17T10:47:14.052Z,30.30
2023-07-17T10:51:16.496Z,30.56
2023-07-17T10:55:19.390Z,30.51
2023-07-17T10:59:23.795Z,30.54
2023-07-17T11:03:27.438Z,30.61
2023-07-17T11:07:36.955Z,30.52
2023-07-17T11:11:39.885Z,30.57
2023-07-17T11:15:44.262Z,30.50
2023-07-17T11:19:47.086Z,30.17
2023-07-17T11:23:54.589Z,29.91
2023-07-17T11:28:00.061Z,29.97
2023-07-17T11:32:02.717Z,30.10
2023-07-17T11:36:16.659Z,30.38
2023-07-17T11:40:19.201Z,30.61
2023-07-17T11:44:27.319Z,30.70
2023-07-17T11:48:33.684Z,30.72
2023-07-17T11:52:35.740Z,30.64
2023-07-17T11:56:43.422Z,30.64
2023-07-17T12:00:50.763Z,30.86
2023-07-17T12:04:53.183Z,30.87
2023-07-17T12:08:55.644Z,31.00
2023-07-17T12:12:58.374Z,31.21
2023-07-17T12:17:01.142Z,31.36
2023-07-17T12:21:03.652Z,31.24
2023-07-17T12:25:06.512Z,31.44
2023-07-17T12:29:08.858Z,31.63
2023-07-17T12:33:11.065Z,31.29
2023-07-17T12:37:13.383Z,30.70
2023-07-17T12:41:16.129Z,30.60
2023-07-17T12:45:18.780Z,30.80
2023-07-17T12:49:21.238Z,30.70
2023-07-17T12:53:23.515Z,30.47
2023-07-17T12:57:28.727Z,30.45
2023-07-17T13:01:32.078Z,30.59
2023-07-17T13:05:34.877Z,30.69
2023-07-17T13:09:37.110Z,31.21
2023-07-17T13:13:39.434Z,31.33
2023-07-17T13:17:45.893Z,30.93
2023-07-17T13:21:49.099Z,30.95
2023-07-17T13:25:51.637Z,30.85
2023-07-17T13:29:55.294Z,30.58
2023-07-17T13:33:57.297Z,30.58
2023-07-17T13:37:59.461Z,30.90
2023-07-17T13:42:01.765Z,30.79
2023-07-17T13:46:03.870Z,30.47
2023-07-17T13:50:07.043Z,30.41
2023-07-17T13:54:10.416Z,30.60
2023-07-17T13:58:16.218Z,30.70
2023-07-17T14:02:18.708Z,30.72
2023-07-17T14:06:21.428Z,30.84
2023-07-17T14:10:24.984Z,30.68
2023-07-17T14:14:29.815Z,30.90
2023-07-17T14:18:34.191Z,31.05
2023-07-17T14:22:40.135Z,31.27
2023-07-17T14:26:42.457Z,31.46
2023-07-17T14:30:45.145Z,31.63
2023-07-17T14:34:47.377Z,31.69
2023-07-17T14:38:49.616Z,31.63
2023-07-17T14:42:53.039Z,31.61
2023-07-17T14:46:55.561Z,31.50
2023-07-17T14:50:58.745Z,31.51
2023-07-17T14:55:00.814Z,31.53
2023-07-17T14:59:03.160Z,31.62
2023-07-17T15:03:05.511Z,31.66
2023-07-17T15:07:09.113Z,31.56
2023-07-17T15:11:12.487Z,31.58
2023-07-17T15:15:14.915Z,31.55
2023-07-17T15:19:17.510Z,31.61
2023-07-17T15:23:19.688Z,31.63
2023-07-17T15:27:21.720Z,31.46
2023-07-17T15:31:23.733Z,31.53
2023-07-17T15:35:26.044Z,31.67
2023-07-17T15:39:28.184Z,31.73
2023-07-17T15:43:30.506Z,31.56
2023-07-17T15:47:32.733Z,31.54
2023-07-17T15:51:35.180Z,31.60
2023-07-17T15:55:38.002Z,31.58
2023-07-17T15:59:40.114Z,31.51
2023-07-17T16:03:42.425Z,31.49
2023-07-17T16:07:44.622Z,31.48
2023-07-17T16:11:46.743Z,31.37
2023-07-17T16:15:49.305Z,31.19
2023-07-17T16:19:51.361Z,30.96
2023-07-17T16:23:53.811Z,30.82
2023-07-17T16:27:56.980Z,30.80
2023-07-17T16:31:59.504Z,30.72
2023-07-17T16:36:01.690Z,30.65
2023-07-17T16:40:06.864Z,30.55
2023-07-17T16:44:09.284Z,30.53
2023-07-17T16:48:14.591Z,30.57
2023-07-17T16:52:16.929Z,30.62
2023-07-17T16:56:19.844Z,30.59
2023-07-17T17:00:24.298Z,30.55
2023-07-17T17:04:26.509Z,30.55
2023-07-17T17:08:28.710Z,30.53
2023-07-17T17:12:31.067Z,30.37
2023-07-17T17:16:33.395Z,30.15
2023-07-17T17:20:35.476Z,29.90
2023-07-17T17:24:37.722Z,29.85
2023-07-17T17:28:39.935Z,29.78
2023-07-17T17:32:42.928Z,29.70
2023-07-17T17:36:45.021Z,29.64
2023-07-17T17:40:47.852Z,29.55
2023-07-17T17:44:49.856Z,29.40
2023-07-17T17:48:52.294Z,29.29
2023-07-17T17:52:54.628Z,29.13
2023-07-17T17:56:58.703Z,28.99
2023-07-17T18:01:01.241Z,28.82
2023-07-17T18:05:03.632Z,28.69
2023-07-17T18:09:05.802Z,28.55
2023-07-17T18:13:07.950Z,28.46
2023-07-17T18:17:10.760Z,28.39
2023-07-17T18:21:13.006Z,28.30
2023-07-17T18:25:14.942Z,28.18
2023-07-17T18:29:16.982Z,28.01
2023-07-17T18:33:19.084Z,27.80
2023-07-17T18:37:21.115Z,27.59
2023-07-17T18:41:23.117Z,27.39
2023-07-17T18:45:25.989Z,27.16
2023-07-17T18:49:28.275Z,26.95
2023-07-17T18:53:30.836Z,26.73
2023-07-17T18:57:32.951Z,26.53
2023-07-17T19:01:35.363Z,26.33
2023-07-17T19:05:37.738Z,26.09
2023-07-17T19:09:39.755Z,25.90
2023-07-17T19:13:41.741Z,25.72
2023-07-17T19:17:44.767Z,25.56
2023-07-17T19:21:46.924Z,25.33
2023-07-17T19:25:49.046Z,25.11
2023-07-17T19:29:51.381Z,24.97
2023-07-17T19:33:54.629Z,24.86
2023-07-17T19:37:56.584Z,24.76
2023-07-17T19:41:58.865Z,24.66
2023-07-17T19:46:00.791Z,24.58
2023-07-17T19:50:02.654Z,24.51
2023-07-17T19:54:04.772Z,24.43
2023-07-17T19:58:08.115Z,24.33
2023-07-17T20:02:10.608Z,24.25
2023-07-17T20:06:14.024Z,24.14
2023-07-17T20:10:16.832Z,24.02
2023-07-17T20:14:18.838Z,23.92
2023-07-17T20:18:21.192Z,23.79
2023-07-17T20:22:23.114Z,23.72
2023-07-17T20:26:25.258Z,23.63
2023-07-17T20:30:27.484Z,23.53
2023-07-17T20:34:29.538Z,23.43
2023-07-17T20:38:31.563Z,23.34
2023-07-17T20:42:48.938Z,23.22
2023-07-17T20:46:51.328Z,23.08
2023-07-17T20:51:12.355Z,22.97
2023-07-17T20:55:19.762Z,22.85
2023-07-17T20:59:21.751Z,22.73
2023-07-17T21:03:23.738Z,22.63
2023-07-17T21:07:25.919Z,22.57
2023-07-17T21:11:29.027Z,22.51
2023-07-17T21:15:31.103Z,22.46
2023-07-17T21:19:32.973Z,22.38
2023-07-17T21:23:34.922Z,22.31
2023-07-17T21:27:36.672Z,22.16
2023-07-17T21:31:38.568Z,22.01
2023-07-17T21:35:40.788Z,21.94
2023-07-17T21:39:42.692Z,21.86
2023-07-17T21:43:44.374Z,21.77
2023-07-17T21:47:46.551Z,21.73
2023-07-17T21:51:48.302Z,21.69
2023-07-17T21:55:50.089Z,21.64
2023-07-17T21:59:53.642Z,21.54
2023-07-17T22:03:56.722Z,21.53
2023-07-17T22:07:58.512Z,21.56
2023-07-17T22:12:00.297Z,21.53
2023-07-17T22:16:03.437Z,21.40
2023-07-17T22:20:07.369Z,21.37
2023-07-17T22:24:09.564Z,21.42
2023-07-17T22:28:11.381Z,21.35
2023-07-17T22:32:14.489Z,21.37
2023-07-17T22:36:16.170Z,21.60
2023-07-17T22:40:18.156Z,21.78
2023-07-17T22:44:19.967Z,21.94
2023-07-17T22:48:21.826Z,22.03
2023-07-17T22:52:23.921Z,22.10
2023-07-17T22:56:26.033Z,22.10
2023-07-17T23:00:28.010Z,22.08
2023-07-17T23:04:30.763Z,22.06
2023-07-17T23:08:33.560Z,21.98
2023-07-17T23:12:39.361Z,21.86
2023-07-17T23:16:41.426Z,21.81
2023-07-17T23:20:43.387Z,21.78
2023-07-17T23:24:45.604Z,21.75
2023-07-17T23:28:48.516Z,21.64
2023-07-17T23:32:50.514Z,21.57
2023-07-17T23:36:52.366Z,21.46
2023-07-17T23:40:54.182Z,21.47
2023-07-17T23:44:56.851Z,21.43
2023-07-17T23:49:01.836Z,21.33
2023-07-17T23:53:03.915Z,21.24
2023-07-17T23:57:07.421Z,21.13
